RJFKRJFS

Guest
Details From RJFK - KAGOSHIMA
To RJFS - SAGA
Flight Number -
Tags generated
Created
Modified
Stats Distance 84 nm / 155 km
Max Altitude 9,900 ft / 3,018 m
Waypoints 3
Social Downloads 0
Likes 0
Share VATSIM

Download

Looking for another format? Having issues loading an existing format? Contact us
Advertisement - Login to hide

Notes

Basic altitude profile: - Ascent Rate: 2500ft/min - Ascent Speed: 250kts - Cruise Altitude: 35000ft - Cruise Speed: 420kts - Descent Rate: 1500ft/min - Descent Speed: 250kts Options: - Use NATs: yes - Use PACOTS: yes - Use low airways: yes - Use high airways: yes

Route

RJFK HINAG RJFS

ID Type Via Altitude Latitude Longitude Leg Dist Tot Dist Heading (true) Name
O RJFK APT - 0 ft / 0 m 31.80340˚ 130.71941˚ - 0 nm - KAGOSHIMA
HINAG FIX - 9,900 ft / 3,018 m 32.39507˚ 130.51492˚ 37 nm 37 nm 344° / 344° -
O RJFS APT - 0 ft / 0 m 33.14972˚ 130.30222˚ 46 nm 83 nm 347° / 347° SAGA

Altitude Profile

Advertisement - Login to hide

RJFK

Details ICAO RJFK (KOJ)
Name KAGOSHIMA
Region Japan
Timezone Asia/Tokyo (UTC+9.0)
Stats Elevation 906 ft / 276 m (AMSL)
Location 31.803400° 130.719405°
Runways 1
Magnetic Variation 6.911° W

METAR

RJFK 161100Z 34017KT 9999 FEW025 BKN050 05/M01 Q1022

Decode

TAF

TAF AMD RJFK 161005Z 1610/1712 32014KT 9999 FEW020 SCT030 BKN040 TEMPO 1610/1612 32015G26KT BECMG 1709/1712 24007KT

Decode

Departure Runways

ID Width Length Bearing (true) Bearing (mag) Surface Threshold Offset Overrun Length
16 150 ft / 46 m 9,861 ft / 3,006 m 150.11° 157.02° Asphalt 0 ft / 0 m 200 ft / 61 m
34 150 ft / 46 m 9,861 ft / 3,006 m 330.11° 337.02° Asphalt 0 ft / 0 m 200 ft / 61 m

RJFS

Details ICAO RJFS (HSG)
Name SAGA
Region Japan
Timezone Asia/Tokyo (UTC+9.0)
Stats Elevation 5 ft / 2 m (AMSL)
Location 33.149718° 130.302221°
Runways 1
Magnetic Variation 7.314° W

METAR

RJFS 161100Z 32009KT 9999 FEW040 BKN060 05/M02 Q1025

Decode

TAF

TAF RJFS 160511Z 1606/1712 31010KT 8000 -SHRA FEW015 SCT025 BKN035 TEMPO 1612/1618 3000 -SHSNRA

Decode

Destination Runways

ID Width Length Bearing (true) Bearing (mag) Surface Threshold Offset Overrun Length
11 148 ft / 45 m 6,550 ft / 1,997 m 99.29° 106.60° Asphalt 0 ft / 0 m 200 ft / 61 m
29 148 ft / 45 m 6,550 ft / 1,997 m 279.30° 286.61° Asphalt 0 ft / 0 m 200 ft / 61 m

Approach Navaids

Runway Type Ident Frequency Range Bearing (true) Bearing (mag) Slope Elevation
29 Localiser ISG 110.15 MHz 18 nm / 33 km 279.29° 286.61° - 6 ft / 2 m (AMSL)
29 Glidescope ISG 110.15 MHz 10 nm / 19 km 279.29° 286.61° 3.00° 23 ft / 7 m (AMSL)
29 DME ISG 110.15 MHz 18 nm / 33 km - - - 23 ft / 7 m (AMSL)